Time,TemperatureF,DewpointF,PressureIn,WindDirection,WindDirectionDegrees,WindSpeedMPH,WindSpeedGustMPH,Humidity,HourlyPrecipIn,Conditions,Clouds,dailyrainin,SoftwareType,DateUTC
2013-01-28 00:01:00,27.9,25.6,30.52,SSW,195,0.0,0.0,91,0.00,,---,0.02,VWS V14.01,2013-01-28 05:01:00,
2013-01-28 00:02:00,27.9,25.6,30.52,SSW,195,0.0,0.0,91,0.00,,---,0.00,VWS V14.01,2013-01-28 05:02:00,
2013-01-28 00:03:00,28.0,25.7,30.52,SSW,195,0.0,0.0,91,0.00,,---,0.00,VWS V14.01,2013-01-28 05:03:00,
2013-01-28 00:08:00,28.1,25.8,30.52,SSW,195,0.0,0.0,91,0.00,,---,0.00,VWS V14.01,2013-01-28 05:08:00,
2013-01-28 00:13:00,28.2,25.9,30.52,SSW,195,0.0,0.0,91,0.00,,---,0.00,VWS V14.01,2013-01-28 05:13:00,
2013-01-28 00:18:00,28.4,26.1,30.52,SSW,195,0.0,0.0,91,0.00,,---,0.00,VWS V14.01,2013-01-28 05:18:00,
2013-01-28 00:23:00,28.5,26.2,30.52,SSW,195,0.0,0.0,91,0.00,,---,0.00,VWS V14.01,2013-01-28 05:23:00,
2013-01-28 00:28:00,28.6,26.3,30.52,SSW,195,0.0,0.0,91,0.00,,---,0.00,VWS V14.01,2013-01-28 05:28:00,
2013-01-28 00:33:00,28.7,26.4,30.52,SSW,195,0.0,0.0,91,0.00,,---,0.00,VWS V14.01,2013-01-28 05:33:00,
2013-01-28 00:38:00,28.8,26.5,30.51,SSW,195,0.0,0.0,91,0.00,,---,0.00,VWS V14.01,2013-01-28 05:38:00,
2013-01-28 00:43:00,28.9,26.6,30.50,SSW,195,0.0,0.0,91,0.00,,---,0.00,VWS V14.01,2013-01-28 05:43:00,
2013-01-28 00:48:00,29.1,26.5,30.49,SSW,195,0.0,0.0,90,0.00,,---,0.00,VWS V14.01,2013-01-28 05:48:00,
2013-01-28 00:53:00,29.2,26.6,30.49,SSW,195,0.0,1.0,90,0.00,,---,0.00,VWS V14.01,2013-01-28 05:53:00,
2013-01-28 00:58:00,29.3,26.5,30.50,SSW,195,0.0,0.0,89,0.00,,---,0.00,VWS V14.01,2013-01-28 05:58:00,
2013-01-28 01:03:00,29.4,26.3,30.50,SSW,195,0.0,0.0,88,0.00,,---,0.00,VWS V14.01,2013-01-28 06:03:00,
2013-01-28 01:08:00,29.6,26.2,30.50,SSW,195,0.0,0.0,87,0.00,,---,0.00,VWS V14.01,2013-01-28 06:08:00,
2013-01-28 01:13:00,29.8,26.4,30.49,SSW,195,0.0,0.0,87,0.00,,---,0.00,VWS V14.01,2013-01-28 06:13:00,
2013-01-28 01:18:00,30.0,26.3,30.49,SSW,195,0.0,0.0,86,0.00,,---,0.00,VWS V14.01,2013-01-28 06:18:00,
2013-01-28 01:23:00,30.2,26.2,30.49,SSW,195,0.0,1.0,85,0.00,,---,0.00,VWS V14.01,2013-01-28 06:23:00,
2013-01-28 01:28:00,30.4,25.9,30.49,SSW,195,0.0,0.0,83,0.00,,---,0.00,VWS V14.01,2013-01-28 06:28:00,
2013-01-28 01:33:00,30.5,26.0,30.49,SSW,195,0.0,0.0,83,0.00,,---,0.00,VWS V14.01,2013-01-28 06:33:00,
2013-01-28 01:38:00,30.7,25.6,30.49,SSW,195,0.0,0.0,81,0.00,,---,0.00,VWS V14.01,2013-01-28 06:38:00,
2013-01-28 01:43:00,30.9,25.8,30.48,SSW,195,0.0,0.0,81,0.00,,---,0.00,VWS V14.01,2013-01-28 06:43:00,
2013-01-28 01:48:00,31.1,26.0,30.48,SSW,195,0.0,1.0,81,0.00,,---,0.00,VWS V14.01,2013-01-28 06:48:00,
2013-01-28 01:53:00,31.3,25.9,30.48,SSW,195,0.0,0.0,80,0.00,,---,0.00,VWS V14.01,2013-01-28 06:53:00,
2013-01-28 01:58:00,31.4,25.6,30.48,SSW,195,0.0,0.0,79,0.00,,---,0.00,VWS V14.01,2013-01-28 06:58:00,
2013-01-28 02:03:00,31.5,25.8,30.47,SSW,195,0.0,0.0,79,0.00,,---,0.00,VWS V14.01,2013-01-28 07:03:00,
2013-01-28 02:08:00,31.6,25.5,30.47,SSW,195,0.0,1.0,78,0.00,,---,0.00,VWS V14.01,2013-01-28 07:08:00,
2013-01-28 02:13:00,31.7,25.6,30.47,SSW,195,0.0,1.0,78,0.00,,---,0.00,VWS V14.01,2013-01-28 07:13:00,
2013-01-28 02:18:00,31.8,25.7,30.47,SSW,195,0.0,1.0,78,0.00,,---,0.00,VWS V14.01,2013-01-28 07:18:00,
2013-01-28 02:23:00,31.9,25.8,30.47,SSW,195,0.0,4.0,78,0.00,,---,0.00,VWS V14.01,2013-01-28 07:23:00,
2013-01-28 02:28:00,31.9,25.8,30.47,SSW,195,0.0,2.0,78,0.00,,---,0.00,VWS V14.01,2013-01-28 07:28:00,
2013-01-28 02:33:00,31.9,25.8,30.47,SSW,195,0.0,0.0,78,0.00,,---,0.00,VWS V14.01,2013-01-28 07:33:00,
2013-01-28 02:38:00,32.0,25.6,30.46,SSW,195,0.0,1.0,77,0.00,,---,0.00,VWS V14.01,2013-01-28 07:38:00,
2013-01-28 02:43:00,32.0,25.9,30.46,SSW,195,0.0,1.0,78,0.00,,---,0.00,VWS V14.01,2013-01-28 07:43:00,
2013-01-28 02:48:00,32.0,27.4,30.46,SSW,195,0.0,0.0,83,0.00,,---,0.00,VWS V14.01,2013-01-28 07:48:00,
2013-01-28 02:53:00,32.0,25.9,30.46,SSW,195,2.0,2.0,78,0.00,,---,0.00,VWS V14.01,2013-01-28 07:53:00,
2013-01-28 02:58:00,32.1,26.0,30.46,SSW,195,0.0,1.0,78,0.00,,---,0.00,VWS V14.01,2013-01-28 07:58:00,
2013-01-28 03:03:00,32.1,26.0,30.46,SSW,195,0.0,1.0,78,0.00,,---,0.00,VWS V14.01,2013-01-28 08:03:00,
2013-01-28 03:08:00,32.0,25.9,30.45,SSW,195,0.0,0.0,78,0.00,,---,0.00,VWS V14.01,2013-01-28 08:08:00,
2013-01-28 03:13:00,32.1,26.0,30.45,SSW,195,0.0,0.0,78,0.00,,---,0.00,VWS V14.01,2013-01-28 08:13:00,
2013-01-28 03:18:00,32.1,26.0,30.45,SSW,195,0.0,0.0,78,0.00,,---,0.00,VWS V14.01,2013-01-28 08:18:00,
2013-01-28 03:23:00,32.1,26.0,30.45,SSW,195,0.0,2.0,78,0.00,,---,0.00,VWS V14.01,2013-01-28 08:23:00,
2013-01-28 03:28:00,32.2,26.1,30.45,SSW,195,0.0,0.0,78,0.00,,---,0.00,VWS V14.01,2013-01-28 08:28:00,
2013-01-28 03:33:00,32.3,26.2,30.45,SSW,195,0.0,0.0,78,0.00,,---,0.00,VWS V14.01,2013-01-28 08:33:00,
2013-01-28 03:38:00,32.3,26.2,30.45,SSW,195,0.0,0.0,78,0.00,,---,0.00,VWS V14.01,2013-01-28 08:38:00,
2013-01-28 03:43:00,32.4,26.0,30.44,SSW,195,0.0,0.0,77,0.00,,---,0.00,VWS V14.01,2013-01-28 08:43:00,
2013-01-28 03:48:00,32.5,26.1,30.45,SSW,195,0.0,1.0,77,0.00,,---,0.00,VWS V14.01,2013-01-28 08:48:00,
2013-01-28 03:53:00,32.6,26.2,30.44,SSW,195,0.0,0.0,77,0.00,,---,0.00,VWS V14.01,2013-01-28 08:53:00,
2013-01-28 03:58:00,32.8,26.4,30.44,SSE,152,0.0,1.0,77,0.00,,---,0.00,VWS V14.01,2013-01-28 08:58:00,
2013-01-28 04:03:00,33.0,26.6,30.44,SSW,194,0.0,1.0,77,0.00,,---,0.00,VWS V14.01,2013-01-28 09:03:00,
2013-01-28 04:08:00,33.1,26.4,30.44,SW,215,1.0,1.0,76,0.00,,---,0.00,VWS V14.01,2013-01-28 09:08:00,
2013-01-28 04:13:00,33.2,26.5,30.43,SW,215,1.0,2.0,76,0.00,,---,0.00,VWS V14.01,2013-01-28 09:13:00,
2013-01-28 04:18:00,33.3,26.6,30.43,SW,215,0.0,2.0,76,0.00,,---,0.00,VWS V14.01,2013-01-28 09:18:00,
2013-01-28 04:23:00,33.4,26.7,30.43,SW,215,0.0,2.0,76,0.00,,---,0.00,VWS V14.01,2013-01-28 09:23:00,
2013-01-28 04:28:00,33.5,26.8,30.43,SW,215,0.0,2.0,76,0.00,,---,0.00,VWS V14.01,2013-01-28 09:28:00,
2013-01-28 04:33:00,33.5,26.8,30.42,SW,215,0.0,0.0,76,0.00,,---,0.00,VWS V14.01,2013-01-28 09:33:00,
2013-01-28 04:38:00,33.5,26.8,30.43,SSW,213,2.0,4.0,76,0.00,,---,0.00,VWS V14.01,2013-01-28 09:38:00,
2013-01-28 04:43:00,33.6,26.9,30.42,SSW,209,0.0,1.0,76,0.00,,---,0.00,VWS V14.01,2013-01-28 09:43:00,
2013-01-28 04:48:00,33.6,27.2,30.42,SW,225,0.0,0.0,77,0.00,,---,0.00,VWS V14.01,2013-01-28 09:48:00,
2013-01-28 04:53:00,33.6,27.5,30.42,SSW,211,1.0,4.0,78,0.00,,---,0.00,VWS V14.01,2013-01-28 09:53:00,
2013-01-28 04:58:00,33.5,27.7,30.42,SSW,211,0.0,2.0,79,0.00,,---,0.00,VWS V14.01,2013-01-28 09:58:00,
2013-01-28 05:03:00,33.5,27.7,30.42,SSW,199,0.0,1.0,79,0.00,,---,0.00,VWS V14.01,2013-01-28 10:03:00,
2013-01-28 05:08:00,33.5,27.7,30.42,SW,215,0.0,2.0,79,0.00,,---,0.00,VWS V14.01,2013-01-28 10:08:00,
2013-01-28 05:13:00,33.5,27.7,30.42,SW,222,1.0,5.0,79,0.00,,---,0.00,VWS V14.01,2013-01-28 10:13:00,
2013-01-28 05:18:00,33.5,27.7,30.42,SW,220,0.0,1.0,79,0.00,,---,0.00,VWS V14.01,2013-01-28 10:18:00,
2013-01-28 05:23:00,33.5,28.0,30.41,South,177,0.0,5.0,80,0.00,,---,0.00,VWS V14.01,2013-01-28 10:23:00,
2013-01-28 05:28:00,33.5,28.3,30.41,South,184,2.0,4.0,81,0.00,,---,0.00,VWS V14.01,2013-01-28 10:28:00,
2013-01-28 05:33:00,33.4,28.5,30.41,South,184,2.0,2.0,82,0.00,,---,0.00,VWS V14.01,2013-01-28 10:33:00,
2013-01-28 05:38:00,33.3,28.4,30.41,South,177,1.0,5.0,82,0.00,,---,0.00,VWS V14.01,2013-01-28 10:38:00,
2013-01-28 05:43:00,33.2,28.9,30.42,South,177,0.0,2.0,84,0.00,,---,0.00,VWS V14.01,2013-01-28 10:43:00,
2013-01-28 05:48:00,33.1,28.8,30.41,SW,221,5.0,6.0,84,0.00,,---,0.00,VWS V14.01,2013-01-28 10:48:00,
2013-01-28 05:53:00,33.0,29.0,30.41,South,178,2.0,2.0,85,0.00,,---,0.00,VWS V14.01,2013-01-28 10:53:00,
2013-01-28 05:58:00,32.9,29.2,30.41,SSE,153,1.0,3.0,86,0.00,,---,0.00,VWS V14.01,2013-01-28 10:58:00,
2013-01-28 06:03:00,32.8,29.1,30.41,SSW,204,0.0,1.0,86,0.00,,---,0.00,VWS V14.01,2013-01-28 11:03:00,
2013-01-28 06:08:00,32.7,29.3,30.41,SSW,204,0.0,1.0,87,0.00,,---,0.00,VWS V14.01,2013-01-28 11:08:00,
2013-01-28 06:13:00,32.7,29.3,30.40,SSW,204,0.0,1.0,87,0.00,,---,0.00,VWS V14.01,2013-01-28 11:13:00,
2013-01-28 06:18:00,32.7,29.3,30.40,SSE,156,0.0,4.0,87,0.00,,---,0.00,VWS V14.01,2013-01-28 11:18:00,
2013-01-28 06:23:00,32.7,29.5,30.40,SSE,156,0.0,2.0,88,0.00,,---,0.00,VWS V14.01,2013-01-28 11:23:00,
2013-01-28 06:28:00,32.7,29.5,30.41,South,187,3.0,3.0,88,0.00,,---,0.00,VWS V14.01,2013-01-28 11:28:00,
2013-01-28 06:33:00,32.7,29.5,30.41,SSE,161,2.0,4.0,88,0.00,,---,0.00,VWS V14.01,2013-01-28 11:33:00,
2013-01-28 06:38:00,32.8,29.6,30.41,South,172,1.0,1.0,88,0.00,,---,0.00,VWS V14.01,2013-01-28 11:38:00,
2013-01-28 06:43:00,32.8,29.9,30.41,SW,225,2.0,2.0,89,0.00,,---,0.00,VWS V14.01,2013-01-28 11:43:00,
2013-01-28 06:48:00,32.8,29.9,30.41,SSW,208,2.0,5.0,89,0.00,,---,0.00,VWS V14.01,2013-01-28 11:48:00,
2013-01-28 06:53:00,32.8,29.9,30.41,SW,215,1.0,1.0,89,0.00,,---,0.00,VWS V14.01,2013-01-28 11:53:00,
2013-01-28 06:58:00,32.9,30.3,30.40,SW,231,0.0,1.0,90,0.00,,---,0.00,VWS V14.01,2013-01-28 11:58:00,
2013-01-28 07:03:00,32.9,30.3,30.41,South,182,1.0,1.0,90,0.00,,---,0.00,VWS V14.01,2013-01-28 12:03:00,
2013-01-28 07:08:00,32.9,30.3,30.40,SW,217,3.0,3.0,90,0.00,,---,0.00,VWS V14.01,2013-01-28 12:08:00,
2013-01-28 07:13:00,32.9,30.3,30.40,SSW,203,4.0,8.0,90,0.00,,---,0.00,VWS V14.01,2013-01-28 12:13:00,
2013-01-28 07:18:00,32.9,30.6,30.40,SSW,202,5.0,6.0,91,0.00,,---,0.00,VWS V14.01,2013-01-28 12:18:00,
2013-01-28 07:23:00,33.0,30.7,30.42,WSW,255,4.0,4.0,91,0.00,,---,0.00,VWS V14.01,2013-01-28 12:23:00,
2013-01-28 07:28:00,33.0,30.7,30.40,WSW,240,2.0,4.0,91,0.00,,---,0.00,VWS V14.01,2013-01-28 12:28:00,
2013-01-28 07:33:00,33.0,30.7,30.41,SW,225,2.0,4.0,91,0.00,,---,0.00,VWS V14.01,2013-01-28 12:33:00,
2013-01-28 07:38:00,33.0,30.7,30.42,SE,145,4.0,6.0,91,0.00,,---,0.00,VWS V14.01,2013-01-28 12:38:00,
2013-01-28 07:43:00,33.0,30.7,30.41,South,184,1.0,1.0,91,0.00,,---,0.00,VWS V14.01,2013-01-28 12:43:00,
2013-01-28 07:48:00,33.0,30.7,30.41,South,175,2.0,4.0,91,0.00,,---,0.00,VWS V14.01,2013-01-28 12:48:00,
2013-01-28 07:53:00,33.0,30.7,30.40,SSW,202,4.0,4.0,91,0.00,,---,0.00,VWS V14.01,2013-01-28 12:53:00,
2013-01-28 07:58:00,33.0,30.7,30.40,South,190,2.0,6.0,91,0.00,,---,0.00,VWS V14.01,2013-01-28 12:58:00,
2013-01-28 08:03:00,33.0,30.7,30.39,SSE,151,1.0,8.0,91,0.00,,---,0.00,VWS V14.01,2013-01-28 13:03:00,
2013-01-28 08:08:00,33.0,30.9,30.39,SSW,203,0.0,5.0,92,0.00,,---,0.00,VWS V14.01,2013-01-28 13:08:00,
2013-01-28 08:13:00,33.0,30.7,30.38,SSE,167,5.0,5.0,91,0.00,,---,0.00,VWS V14.01,2013-01-28 13:13:00,
2013-01-28 08:18:00,33.0,30.9,30.39,SSW,205,5.0,7.0,92,0.00,,---,0.00,VWS V14.01,2013-01-28 13:18:00,
2013-01-28 08:23:00,33.1,31.0,30.39,SSW,208,0.0,2.0,92,0.00,,---,0.00,VWS V14.01,2013-01-28 13:23:00,
2013-01-28 08:28:00,33.1,31.0,30.38,South,175,2.0,4.0,92,0.00,,---,0.00,VWS V14.01,2013-01-28 13:28:00,
2013-01-28 08:33:00,33.1,31.0,30.38,South,182,1.0,5.0,92,0.00,,---,0.00,VWS V14.01,2013-01-28 13:33:00,
2013-01-28 08:38:00,33.2,31.1,30.39,SSE,154,1.0,4.0,92,0.00,,---,0.00,VWS V14.01,2013-01-28 13:38:00,
2013-01-28 08:43:00,33.2,31.1,30.38,SSW,207,0.0,2.0,92,0.00,,---,0.00,VWS V14.01,2013-01-28 13:43:00,
2013-01-28 08:48:00,33.3,31.2,30.39,WSW,239,1.0,5.0,92,0.00,,---,0.00,VWS V14.01,2013-01-28 13:48:00,
2013-01-28 08:53:00,33.3,31.2,30.39,South,186,4.0,5.0,92,0.00,,---,0.00,VWS V14.01,2013-01-28 13:53:00,
2013-01-28 08:58:00,33.3,31.2,30.39,WSW,238,2.0,5.0,92,0.00,,---,0.00,VWS V14.01,2013-01-28 13:58:00,
2013-01-28 09:03:00,33.4,31.3,30.38,SW,230,3.0,5.0,92,0.00,,---,0.00,VWS V14.01,2013-01-28 14:03:00,
2013-01-28 09:08:00,33.4,31.3,30.38,SSW,207,5.0,5.0,92,0.00,,---,0.00,VWS V14.01,2013-01-28 14:08:00,
2013-01-28 09:13:00,33.4,31.6,30.37,SSW,194,2.0,5.0,93,0.00,,---,0.00,VWS V14.01,2013-01-28 14:13:00,
2013-01-28 09:18:00,33.4,31.6,30.37,SW,225,1.0,4.0,93,0.00,,---,0.00,VWS V14.01,2013-01-28 14:18:00,
2013-01-28 09:23:00,33.4,31.6,30.37,SSW,196,1.0,2.0,93,0.00,,---,0.00,VWS V14.01,2013-01-28 14:23:00,
2013-01-28 09:28:00,33.4,31.6,30.37,SSW,198,2.0,2.0,93,0.00,,---,0.00,VWS V14.01,2013-01-28 14:28:00,
2013-01-28 09:33:00,33.4,31.6,30.37,South,188,1.0,4.0,93,0.00,,---,0.00,VWS V14.01,2013-01-28 14:33:00,
2013-01-28 09:38:00,33.4,31.6,30.37,SSW,209,0.0,4.0,93,0.00,,---,0.00,VWS V14.01,2013-01-28 14:38:00,
2013-01-28 09:43:00,33.4,31.9,30.36,SSW,213,7.0,8.0,94,0.00,,---,0.00,VWS V14.01,2013-01-28 14:43:00,
2013-01-28 09:48:00,33.4,31.9,30.36,SSW,195,0.0,6.0,94,0.00,,---,0.00,VWS V14.01,2013-01-28 14:48:00,
2013-01-28 09:53:00,33.5,32.0,30.36,SSW,207,2.0,4.0,94,0.00,,---,0.00,VWS V14.01,2013-01-28 14:53:00,
2013-01-28 09:58:00,33.6,32.1,30.36,SSW,213,2.0,8.0,94,0.00,,---,0.00,VWS V14.01,2013-01-28 14:58:00,
2013-01-28 10:03:00,33.5,32.0,30.36,SSE,160,1.0,4.0,94,0.00,,---,0.00,VWS V14.01,2013-01-28 15:03:00,
2013-01-28 10:08:00,33.6,32.1,30.35,South,169,4.0,4.0,94,0.01,,---,0.01,VWS V14.01,2013-01-28 15:08:00,
2013-01-28 10:13:00,33.6,32.1,30.35,SW,226,3.0,4.0,94,0.03,,---,0.03,VWS V14.01,2013-01-28 15:13:00,
2013-01-28 10:18:00,33.6,32.1,30.34,SSW,194,7.0,7.0,94,0.04,,---,0.04,VWS V14.01,2013-01-28 15:18:00,
2013-01-28 10:23:00,33.7,32.4,30.34,SSW,205,4.0,7.0,95,0.04,,---,0.04,VWS V14.01,2013-01-28 15:23:00,
2013-01-28 10:28:00,33.7,32.4,30.34,South,173,4.0,6.0,95,0.05,,---,0.05,VWS V14.01,2013-01-28 15:28:00,
2013-01-28 10:33:00,33.8,32.5,30.34,South,179,1.0,2.0,95,0.05,,---,0.05,VWS V14.01,2013-01-28 15:33:00,
2013-01-28 10:38:00,33.9,32.6,30.34,South,174,3.0,6.0,95,0.05,,---,0.05,VWS V14.01,2013-01-28 15:38:00,
2013-01-28 10:43:00,33.9,32.6,30.34,SSW,210,2.0,2.0,95,0.06,,---,0.06,VWS V14.01,2013-01-28 15:43:00,
2013-01-28 10:48:00,34.0,32.7,30.33,South,190,4.0,5.0,95,0.06,,---,0.06,VWS V14.01,2013-01-28 15:48:00,
2013-01-28 10:53:00,34.1,32.8,30.33,SSW,197,6.0,7.0,95,0.06,,---,0.06,VWS V14.01,2013-01-28 15:53:00,
2013-01-28 10:58:00,34.1,32.8,30.33,South,177,2.0,2.0,95,0.06,,---,0.06,VWS V14.01,2013-01-28 15:58:00,
2013-01-28 11:03:00,34.2,32.9,30.32,SSW,206,2.0,4.0,95,0.07,,---,0.07,VWS V14.01,2013-01-28 16:03:00,
2013-01-28 11:08:00,34.2,32.9,30.31,SSE,163,1.0,4.0,95,0.06,,---,0.07,VWS V14.01,2013-01-28 16:08:00,
2013-01-28 11:13:00,34.3,33.0,30.31,South,177,4.0,5.0,95,0.05,,---,0.07,VWS V14.01,2013-01-28 16:13:00,
2013-01-28 11:18:00,34.3,33.0,30.31,SSW,195,3.0,6.0,95,0.03,,---,0.07,VWS V14.01,2013-01-28 16:18:00,
2013-01-28 11:23:00,34.3,33.0,30.30,SSE,158,1.0,5.0,95,0.04,,---,0.08,VWS V14.01,2013-01-28 16:23:00,
2013-01-28 11:28:00,34.4,33.1,30.29,SW,217,2.0,5.0,95,0.03,,---,0.08,VWS V14.01,2013-01-28 16:28:00,
2013-01-28 11:33:00,34.4,33.1,30.30,SW,218,4.0,5.0,95,0.03,,---,0.08,VWS V14.01,2013-01-28 16:33:00,
2013-01-28 11:38:00,34.5,33.2,30.30,SSW,200,0.0,1.0,95,0.03,,---,0.08,VWS V14.01,2013-01-28 16:38:00,
2013-01-28 11:43:00,34.6,33.3,30.28,SSW,209,5.0,8.0,95,0.02,,---,0.08,VWS V14.01,2013-01-28 16:43:00,
2013-01-28 11:48:00,34.6,33.3,30.28,SSW,192,5.0,5.0,95,0.03,,---,0.09,VWS V14.01,2013-01-28 16:48:00,
2013-01-28 11:53:00,34.7,33.4,30.28,South,171,1.0,1.0,95,0.03,,---,0.09,VWS V14.01,2013-01-28 16:53:00,
2013-01-28 11:58:00,34.8,33.5,30.28,South,187,1.0,6.0,95,0.03,,---,0.09,VWS V14.01,2013-01-28 16:58:00,
2013-01-28 12:03:00,35.0,34.0,30.27,SSW,209,0.0,2.0,96,0.02,,---,0.09,VWS V14.01,2013-01-28 17:03:00,
2013-01-28 12:08:00,35.0,33.7,30.27,SW,224,1.0,2.0,95,0.02,,---,0.09,VWS V14.01,2013-01-28 17:08:00,
2013-01-28 12:13:00,35.1,33.8,30.26,SSW,212,2.0,3.0,95,0.02,,---,0.09,VWS V14.01,2013-01-28 17:13:00,
2013-01-28 12:18:00,35.2,33.9,30.25,South,177,1.0,8.0,95,0.02,,---,0.09,VWS V14.01,2013-01-28 17:18:00,
2013-01-28 12:23:00,35.3,34.0,30.24,SW,218,2.0,4.0,95,0.01,,---,0.09,VWS V14.01,2013-01-28 17:23:00,
2013-01-28 12:28:00,35.4,34.1,30.24,South,179,6.0,8.0,95,0.02,,---,0.10,VWS V14.01,2013-01-28 17:28:00,
2013-01-28 12:33:00,35.5,34.2,30.23,South,171,6.0,6.0,95,0.02,,---,0.10,VWS V14.01,2013-01-28 17:33:00,
2013-01-28 12:38:00,35.6,34.3,30.23,SE,146,2.0,5.0,95,0.02,,---,0.10,VWS V14.01,2013-01-28 17:38:00,
2013-01-28 12:43:00,35.7,34.4,30.24,SSE,167,0.0,1.0,95,0.02,,---,0.10,VWS V14.01,2013-01-28 17:43:00,
2013-01-28 12:48:00,35.9,34.6,30.23,SSW,203,2.0,6.0,95,0.01,,---,0.10,VWS V14.01,2013-01-28 17:48:00,
2013-01-28 12:53:00,35.9,34.6,30.21,SSW,204,2.0,5.0,95,0.01,,---,0.10,VWS V14.01,2013-01-28 17:53:00,
2013-01-28 12:58:00,36.0,34.7,30.23,SW,231,0.0,3.0,95,0.01,,---,0.10,VWS V14.01,2013-01-28 17:58:00,
2013-01-28 13:03:00,36.0,34.7,30.23,SW,231,0.0,1.0,95,0.02,,---,0.11,VWS V14.01,2013-01-28 18:03:00,
2013-01-28 13:08:00,36.1,34.8,30.21,South,181,4.0,5.0,95,0.02,,---,0.11,VWS V14.01,2013-01-28 18:08:00,
2013-01-28 13:13:00,36.1,34.8,30.21,South,187,0.0,2.0,95,0.02,,---,0.11,VWS V14.01,2013-01-28 18:13:00,
2013-01-28 13:18:00,36.2,34.9,30.21,SSW,205,1.0,2.0,95,0.02,,---,0.11,VWS V14.01,2013-01-28 18:18:00,
2013-01-28 13:23:00,36.2,34.9,30.20,SSW,205,1.0,2.0,95,0.02,,---,0.11,VWS V14.01,2013-01-28 18:23:00,
2013-01-28 13:28:00,36.3,35.0,30.20,SSW,198,0.0,6.0,95,0.02,,---,0.11,VWS V14.01,2013-01-28 18:28:00,
2013-01-28 13:33:00,36.4,35.1,30.20,WSW,251,1.0,2.0,95,0.01,,---,0.11,VWS V14.01,2013-01-28 18:33:00,
2013-01-28 13:38:00,36.4,35.1,30.19,SW,228,4.0,4.0,95,0.01,,---,0.11,VWS V14.01,2013-01-28 18:38:00,
2013-01-28 13:43:00,36.5,36.5,30.18,SSW,208,2.0,3.0,100,0.01,,---,0.11,VWS V14.01,2013-01-28 18:43:00,
2013-01-28 13:48:00,36.6,35.3,30.17,SSW,209,4.0,4.0,95,0.02,,---,0.12,VWS V14.01,2013-01-28 18:48:00,
2013-01-28 13:53:00,36.6,35.3,30.18,SW,215,1.0,2.0,95,0.02,,---,0.12,VWS V14.01,2013-01-28 18:53:00,
2013-01-28 13:58:00,36.8,35.5,30.18,SW,214,0.0,2.0,95,0.02,,---,0.12,VWS V14.01,2013-01-28 18:58:00,
2013-01-28 14:03:00,36.8,35.5,30.18,SE,139,0.0,1.0,95,0.01,,---,0.12,VWS V14.01,2013-01-28 19:03:00,
2013-01-28 14:08:00,37.0,35.7,30.16,South,172,2.0,4.0,95,0.01,,---,0.12,VWS V14.01,2013-01-28 19:08:00,
2013-01-28 14:13:00,37.1,35.8,30.17,South,172,0.0,2.0,95,0.01,,---,0.12,VWS V14.01,2013-01-28 19:13:00,
2013-01-28 14:18:00,37.2,35.9,30.16,South,172,1.0,2.0,95,0.01,,---,0.12,VWS V14.01,2013-01-28 19:18:00,
2013-01-28 14:23:00,37.4,36.1,30.16,SSW,213,5.0,5.0,95,0.01,,---,0.12,VWS V14.01,2013-01-28 19:23:00,
2013-01-28 14:28:00,37.6,36.3,30.16,WSW,245,1.0,2.0,95,0.02,,---,0.13,VWS V14.01,2013-01-28 19:28:00,
2013-01-28 14:33:00,37.8,36.5,30.16,WSW,245,0.0,1.0,95,0.02,,---,0.13,VWS V14.01,2013-01-28 19:33:00,
2013-01-28 14:38:00,38.0,36.7,30.16,SSW,213,2.0,2.0,95,0.02,,---,0.13,VWS V14.01,2013-01-28 19:38:00,
2013-01-28 14:43:00,38.1,36.5,30.16,SW,217,3.0,3.0,94,0.02,,---,0.13,VWS V14.01,2013-01-28 19:43:00,
2013-01-28 14:48:00,38.2,36.6,30.15,SW,225,2.0,5.0,94,0.02,,---,0.13,VWS V14.01,2013-01-28 19:48:00,
2013-01-28 14:53:00,38.3,36.7,30.15,SSW,199,1.0,2.0,94,0.01,,---,0.13,VWS V14.01,2013-01-28 19:53:00,
2013-01-28 14:58:00,38.4,36.8,30.15,SW,236,2.0,5.0,94,0.01,,---,0.13,VWS V14.01,2013-01-28 19:58:00,
2013-01-28 15:03:00,38.6,37.0,30.14,SW,236,0.0,1.0,94,0.01,,---,0.13,VWS V14.01,2013-01-28 20:03:00,
2013-01-28 15:08:00,38.8,37.2,30.13,SSW,204,0.0,2.0,94,0.01,,---,0.13,VWS V14.01,2013-01-28 20:08:00,
2013-01-28 15:13:00,39.0,37.4,30.13,South,188,1.0,2.0,94,0.01,,---,0.13,VWS V14.01,2013-01-28 20:13:00,
2013-01-28 15:18:00,39.2,37.6,30.13,South,189,1.0,1.0,94,0.02,,---,0.14,VWS V14.01,2013-01-28 20:18:00,
2013-01-28 15:23:00,39.3,37.5,30.13,SSW,203,4.0,4.0,93,0.02,,---,0.14,VWS V14.01,2013-01-28 20:23:00,
2013-01-28 15:28:00,39.5,37.7,30.13,SSW,207,0.0,4.0,93,0.01,,---,0.14,VWS V14.01,2013-01-28 20:28:00,
2013-01-28 15:33:00,39.6,37.5,30.13,SW,225,1.0,4.0,92,0.01,,---,0.14,VWS V14.01,2013-01-28 20:33:00,
2013-01-28 15:38:00,39.7,37.8,30.13,SW,223,0.0,2.0,93,0.01,,---,0.14,VWS V14.01,2013-01-28 20:38:00,
2013-01-28 15:43:00,39.8,38.0,30.13,SW,226,1.0,6.0,93,0.01,,---,0.14,VWS V14.01,2013-01-28 20:43:00,
2013-01-28 15:48:00,39.9,37.8,30.13,SW,217,0.0,1.0,92,0.01,,---,0.14,VWS V14.01,2013-01-28 20:48:00,
2013-01-28 15:53:00,40.1,38.0,30.13,SW,217,1.0,3.0,92,0.01,,---,0.14,VWS V14.01,2013-01-28 20:53:00,
2013-01-28 15:58:00,40.2,38.1,30.13,SSW,193,1.0,4.0,92,0.01,,---,0.14,VWS V14.01,2013-01-28 20:58:00,
2013-01-28 16:03:00,40.2,38.1,30.14,SW,214,0.0,2.0,92,0.01,,---,0.14,VWS V14.01,2013-01-28 21:03:00,
2013-01-28 16:08:00,40.3,38.2,30.13,SW,214,0.0,2.0,92,0.01,,---,0.14,VWS V14.01,2013-01-28 21:08:00,
2013-01-28 16:13:00,40.3,38.2,30.13,SW,214,1.0,1.0,92,0.02,,---,0.15,VWS V14.01,2013-01-28 21:13:00,
2013-01-28 16:18:00,40.3,38.2,30.13,SW,214,0.0,1.0,92,0.01,,---,0.15,VWS V14.01,2013-01-28 21:18:00,
2013-01-28 16:23:00,40.3,38.2,30.13,SW,214,0.0,1.0,92,0.01,,---,0.15,VWS V14.01,2013-01-28 21:23:00,
2013-01-28 16:28:00,40.3,38.2,30.12,SW,214,1.0,2.0,92,0.01,,---,0.15,VWS V14.01,2013-01-28 21:28:00,
2013-01-28 16:33:00,40.3,38.2,30.13,SW,214,0.0,0.0,92,0.01,,---,0.15,VWS V14.01,2013-01-28 21:33:00,
2013-01-28 16:38:00,40.3,38.2,30.13,SW,214,0.0,0.0,92,0.01,,---,0.15,VWS V14.01,2013-01-28 21:38:00,
2013-01-28 16:43:00,40.2,38.1,30.13,SW,214,1.0,1.0,92,0.01,,---,0.15,VWS V14.01,2013-01-28 21:43:00,
2013-01-28 16:48:00,40.2,38.1,30.12,SW,214,0.0,1.0,92,0.01,,---,0.15,VWS V14.01,2013-01-28 21:48:00,
2013-01-28 16:53:00,40.2,38.1,30.12,SW,214,0.0,1.0,92,0.01,,---,0.15,VWS V14.01,2013-01-28 21:53:00,
2013-01-28 16:58:00,40.2,38.3,30.12,SW,214,0.0,0.0,93,0.01,,---,0.15,VWS V14.01,2013-01-28 21:58:00,
2013-01-28 17:03:00,40.1,38.2,30.12,SW,214,0.0,0.0,93,0.01,,---,0.15,VWS V14.01,2013-01-28 22:03:00,
2013-01-28 17:08:00,40.1,38.2,30.11,SW,214,0.0,0.0,93,0.01,,---,0.15,VWS V14.01,2013-01-28 22:08:00,
2013-01-28 17:13:00,40.0,38.1,30.11,SW,214,0.0,0.0,93,0.00,,---,0.15,VWS V14.01,2013-01-28 22:13:00,
2013-01-28 17:18:00,39.9,38.0,30.11,SW,214,0.0,1.0,93,0.00,,---,0.15,VWS V14.01,2013-01-28 22:18:00,
2013-01-28 17:23:00,39.9,38.0,30.10,SW,214,0.0,0.0,93,0.00,,---,0.15,VWS V14.01,2013-01-28 22:23:00,
2013-01-28 17:28:00,39.8,38.0,30.11,SW,214,0.0,0.0,93,0.00,,---,0.15,VWS V14.01,2013-01-28 22:28:00,
2013-01-28 17:33:00,39.8,38.2,30.11,SW,214,0.0,0.0,94,0.00,,---,0.15,VWS V14.01,2013-01-28 22:33:00,
2013-01-28 17:38:00,39.7,38.1,30.11,SW,214,0.0,0.0,94,0.00,,---,0.15,VWS V14.01,2013-01-28 22:38:00,
2013-01-28 17:43:00,39.7,38.1,30.11,SW,214,0.0,0.0,94,0.00,,---,0.15,VWS V14.01,2013-01-28 22:43:00,
2013-01-28 17:48:00,39.7,38.1,30.11,SW,214,0.0,0.0,94,0.00,,---,0.15,VWS V14.01,2013-01-28 22:48:00,
2013-01-28 17:53:00,39.6,38.0,30.11,SW,214,0.0,0.0,94,0.00,,---,0.15,VWS V14.01,2013-01-28 22:53:00,
2013-01-28 17:58:00,39.6,38.0,30.11,SW,214,0.0,0.0,94,0.00,,---,0.15,VWS V14.01,2013-01-28 22:58:00,
2013-01-28 18:03:00,39.6,38.0,30.11,SW,214,0.0,0.0,94,0.00,,---,0.15,VWS V14.01,2013-01-28 23:03:00,
2013-01-28 18:08:00,39.5,37.9,30.11,SW,214,0.0,0.0,94,0.00,,---,0.15,VWS V14.01,2013-01-28 23:08:00,
2013-01-28 18:13:00,39.5,37.9,30.11,SW,214,0.0,0.0,94,0.00,,---,0.15,VWS V14.01,2013-01-28 23:13:00,
2013-01-28 18:18:00,39.5,38.2,30.12,SW,214,0.0,0.0,95,0.00,,---,0.15,VWS V14.01,2013-01-28 23:18:00,
2013-01-28 18:23:00,39.5,38.2,30.12,SW,214,0.0,1.0,95,0.00,,---,0.15,VWS V14.01,2013-01-28 23:23:00,
2013-01-28 18:28:00,39.5,38.2,30.12,SW,214,0.0,0.0,95,0.00,,---,0.15,VWS V14.01,2013-01-28 23:28:00,
2013-01-28 18:33:00,39.4,38.1,30.11,SW,214,0.0,0.0,95,0.00,,---,0.15,VWS V14.01,2013-01-28 23:33:00,
2013-01-28 18:38:00,39.4,38.1,30.11,SW,214,0.0,0.0,95,0.00,,---,0.15,VWS V14.01,2013-01-28 23:38:00,
2013-01-28 18:43:00,39.3,38.0,30.11,SW,214,0.0,0.0,95,0.00,,---,0.15,VWS V14.01,2013-01-28 23:43:00,
2013-01-28 18:48:00,39.3,38.0,30.11,SW,214,0.0,0.0,95,0.00,,---,0.15,VWS V14.01,2013-01-28 23:48:00,
2013-01-28 18:53:00,39.3,38.0,30.11,SW,214,0.0,0.0,95,0.00,,---,0.15,VWS V14.01,2013-01-28 23:53:00,
2013-01-28 18:58:00,39.2,37.9,30.11,SW,214,0.0,0.0,95,0.00,,---,0.15,VWS V14.01,2013-01-28 23:58:00,
2013-01-28 19:03:00,39.2,37.9,30.10,SW,214,0.0,0.0,95,0.00,,---,0.15,VWS V14.01,2013-01-29 00:03:00,
2013-01-28 19:08:00,39.1,37.8,30.10,SW,214,0.0,0.0,95,0.00,,---,0.15,VWS V14.01,2013-01-29 00:08:00,
2013-01-28 19:13:00,39.1,37.8,30.10,SW,214,0.0,0.0,95,0.00,,---,0.15,VWS V14.01,2013-01-29 00:13:00,
2013-01-28 19:18:00,39.1,37.8,30.10,SW,214,0.0,0.0,95,0.00,,---,0.15,VWS V14.01,2013-01-29 00:18:00,
2013-01-28 19:23:00,39.0,37.7,30.09,SW,214,0.0,0.0,95,0.00,,---,0.15,VWS V14.01,2013-01-29 00:23:00,
2013-01-28 19:28:00,38.9,37.6,30.09,SW,214,0.0,0.0,95,0.00,,---,0.15,VWS V14.01,2013-01-29 00:28:00,
2013-01-28 19:33:00,38.9,37.6,30.09,SW,214,0.0,0.0,95,0.00,,---,0.15,VWS V14.01,2013-01-29 00:33:00,
2013-01-28 19:38:00,38.8,37.5,30.08,SW,214,0.0,0.0,95,0.00,,---,0.15,VWS V14.01,2013-01-29 00:38:00,
2013-01-28 19:43:00,38.7,37.4,30.08,SW,214,0.0,0.0,95,0.00,,---,0.15,VWS V14.01,2013-01-29 00:43:00,
2013-01-28 19:48:00,38.6,37.3,30.08,SW,214,0.0,0.0,95,0.00,,---,0.15,VWS V14.01,2013-01-29 00:48:00,
2013-01-28 19:53:00,38.5,37.2,30.09,SW,214,0.0,0.0,95,0.00,,---,0.15,VWS V14.01,2013-01-29 00:53:00,
2013-01-28 19:58:00,38.5,37.2,30.09,SW,214,0.0,0.0,95,0.00,,---,0.15,VWS V14.01,2013-01-29 00:58:00,
2013-01-28 20:03:00,38.2,36.9,30.09,SW,214,0.0,0.0,95,0.00,,---,0.15,VWS V14.01,2013-01-29 01:03:00,
2013-01-28 20:08:00,38.0,36.7,30.09,SW,214,0.0,0.0,95,0.00,,---,0.15,VWS V14.01,2013-01-29 01:08:00,
2013-01-28 20:13:00,37.8,36.5,30.08,SW,214,0.0,0.0,95,0.00,,---,0.15,VWS V14.01,2013-01-29 01:13:00,
2013-01-28 20:18:00,37.6,36.3,30.08,SW,214,0.0,0.0,95,0.00,,---,0.15,VWS V14.01,2013-01-29 01:18:00,
2013-01-28 20:23:00,37.4,36.1,30.08,SW,214,0.0,0.0,95,0.00,,---,0.15,VWS V14.01,2013-01-29 01:23:00,
2013-01-28 20:28:00,37.2,35.9,30.08,SW,214,0.0,0.0,95,0.00,,---,0.15,VWS V14.01,2013-01-29 01:28:00,
2013-01-28 20:33:00,37.0,35.7,30.08,SW,214,0.0,0.0,95,0.00,,---,0.15,VWS V14.01,2013-01-29 01:33:00,
2013-01-28 20:38:00,36.9,35.6,30.08,SW,214,0.0,0.0,95,0.00,,---,0.15,VWS V14.01,2013-01-29 01:38:00,
2013-01-28 20:43:00,36.8,35.5,30.08,SW,214,0.0,0.0,95,0.00,,---,0.15,VWS V14.01,2013-01-29 01:43:00,
2013-01-28 20:48:00,36.7,36.7,30.07,SW,214,0.0,0.0,100,0.00,,---,0.15,VWS V14.01,2013-01-29 01:48:00,
2013-01-28 20:53:00,36.6,35.3,30.07,SW,214,0.0,0.0,95,0.00,,---,0.15,VWS V14.01,2013-01-29 01:53:00,
2013-01-28 20:58:00,36.5,35.2,30.07,SW,214,0.0,0.0,95,0.00,,---,0.15,VWS V14.01,2013-01-29 01:58:00,
2013-01-28 21:03:00,36.4,35.1,30.07,SW,214,0.0,0.0,95,0.00,,---,0.15,VWS V14.01,2013-01-29 02:03:00,
2013-01-28 21:08:00,36.2,34.9,30.07,SW,214,0.0,0.0,95,0.00,,---,0.15,VWS V14.01,2013-01-29 02:08:00,
2013-01-28 21:13:00,36.2,34.9,30.07,SW,214,0.0,0.0,95,0.00,,---,0.15,VWS V14.01,2013-01-29 02:13:00,
2013-01-28 21:18:00,36.2,34.9,30.07,SW,214,0.0,0.0,95,0.00,,---,0.15,VWS V14.01,2013-01-29 02:18:00,
2013-01-28 21:23:00,36.2,35.2,30.06,SW,214,0.0,0.0,96,0.00,,---,0.15,VWS V14.01,2013-01-29 02:23:00,
2013-01-28 21:28:00,36.2,35.2,30.06,SW,214,0.0,0.0,96,0.00,,---,0.15,VWS V14.01,2013-01-29 02:28:00,
2013-01-28 21:33:00,36.2,35.2,30.06,SW,214,0.0,0.0,96,0.00,,---,0.15,VWS V14.01,2013-01-29 02:33:00,
2013-01-28 21:38:00,36.2,35.2,30.06,SW,214,0.0,0.0,96,0.00,,---,0.15,VWS V14.01,2013-01-29 02:38:00,
2013-01-28 21:43:00,36.2,35.2,30.06,SW,214,0.0,0.0,96,0.00,,---,0.15,VWS V14.01,2013-01-29 02:43:00,
2013-01-28 21:48:00,36.3,35.3,30.06,SW,214,0.0,0.0,96,0.00,,---,0.15,VWS V14.01,2013-01-29 02:48:00,
2013-01-28 21:53:00,36.4,35.4,30.06,SW,214,0.0,0.0,96,0.00,,---,0.15,VWS V14.01,2013-01-29 02:53:00,
2013-01-28 21:58:00,36.5,35.7,30.05,SW,214,0.0,0.0,97,0.00,,---,0.15,VWS V14.01,2013-01-29 02:58:00,
2013-01-28 22:03:00,36.6,35.8,30.05,SW,214,0.0,0.0,97,0.00,,---,0.15,VWS V14.01,2013-01-29 03:03:00,
2013-01-28 22:08:00,36.7,35.9,30.05,SW,214,0.0,0.0,97,0.00,,---,0.15,VWS V14.01,2013-01-29 03:08:00,
2013-01-28 22:13:00,36.8,36.0,30.05,SW,214,2.0,2.0,97,0.00,,---,0.15,VWS V14.01,2013-01-29 03:13:00,
2013-01-28 22:18:00,36.9,36.1,30.06,SW,214,0.0,0.0,97,0.00,,---,0.15,VWS V14.01,2013-01-29 03:18:00,
2013-01-28 22:23:00,37.0,36.2,30.07,SW,214,0.0,0.0,97,0.00,,---,0.15,VWS V14.01,2013-01-29 03:23:00,
2013-01-28 22:28:00,37.0,36.2,30.06,SW,214,0.0,0.0,97,0.00,,---,0.15,VWS V14.01,2013-01-29 03:28:00,
2013-01-28 22:33:00,37.1,36.3,30.07,SW,214,0.0,0.0,97,0.00,,---,0.15,VWS V14.01,2013-01-29 03:33:00,
2013-01-28 22:38:00,37.2,36.4,30.06,SW,214,0.0,0.0,97,0.00,,---,0.15,VWS V14.01,2013-01-29 03:38:00,
2013-01-28 22:43:00,37.3,36.5,30.06,SW,214,0.0,0.0,97,0.00,,---,0.15,VWS V14.01,2013-01-29 03:43:00,
2013-01-28 22:48:00,37.4,36.6,30.06,SW,214,0.0,0.0,97,0.00,,---,0.15,VWS V14.01,2013-01-29 03:48:00,
2013-01-28 22:53:00,37.4,36.6,30.06,SW,214,0.0,0.0,97,0.00,,---,0.15,VWS V14.01,2013-01-29 03:53:00,
2013-01-28 22:58:00,37.3,36.5,30.06,SW,214,0.0,0.0,97,0.00,,---,0.15,VWS V14.01,2013-01-29 03:58:00,
2013-01-28 23:03:00,37.2,36.4,30.06,SW,214,0.0,0.0,97,0.00,,---,0.15,VWS V14.01,2013-01-29 04:03:00,
2013-01-28 23:08:00,37.0,36.2,30.06,SW,214,0.0,0.0,97,0.00,,---,0.15,VWS V14.01,2013-01-29 04:08:00,
2013-01-28 23:13:00,36.9,35.9,30.06,SW,214,0.0,0.0,96,0.00,,---,0.15,VWS V14.01,2013-01-29 04:13:00,
2013-01-28 23:18:00,36.8,35.8,30.06,SW,214,0.0,0.0,96,0.00,,---,0.15,VWS V14.01,2013-01-29 04:18:00,
2013-01-28 23:23:00,36.6,35.6,30.06,SW,214,0.0,0.0,96,0.00,,---,0.15,VWS V14.01,2013-01-29 04:23:00,
2013-01-28 23:28:00,36.5,35.5,30.06,SW,214,0.0,0.0,96,0.00,,---,0.15,VWS V14.01,2013-01-29 04:28:00,
2013-01-28 23:33:00,36.4,35.4,30.06,SW,214,0.0,0.0,96,0.00,,---,0.15,VWS V14.01,2013-01-29 04:33:00,
2013-01-28 23:38:00,36.3,35.5,30.06,SW,214,0.0,0.0,97,0.00,,---,0.15,VWS V14.01,2013-01-29 04:38:00,
2013-01-28 23:43:00,36.2,35.2,30.06,SW,214,0.0,0.0,96,0.00,,---,0.15,VWS V14.01,2013-01-29 04:43:00,
2013-01-28 23:48:00,36.0,35.0,30.06,SW,214,0.0,0.0,96,0.00,,---,0.15,VWS V14.01,2013-01-29 04:48:00,
2013-01-28 23:53:00,35.9,34.9,30.06,SW,214,0.0,0.0,96,0.00,,---,0.15,VWS V14.01,2013-01-29 04:53:00,
2013-01-28 23:58:00,35.7,34.7,30.06,SW,214,0.0,0.0,96,0.00,,---,0.15,VWS V14.01,2013-01-29 04:58:00,